createdAt,value
2018-04-28T00:04:14.830Z,10.7
2018-04-28T00:20:54.191Z,10.7
2018-04-28T00:37:33.964Z,10.7
2018-04-28T00:54:12.513Z,10.7
2018-04-28T01:10:51.426Z,10.7
2018-04-28T01:27:30.493Z,11.0
2018-04-28T01:44:09.789Z,11.4
2018-04-28T02:00:49.316Z,11.7
2018-04-28T02:17:28.930Z,11.4
2018-04-28T02:34:08.747Z,11.4
2018-04-28T02:50:47.923Z,11.4
2018-04-28T03:07:27.413Z,11.0
2018-04-28T03:24:06.691Z,11.0
2018-04-28T03:40:45.757Z,11.0
2018-04-28T03:57:24.850Z,11.0
2018-04-28T04:14:04.663Z,11.4
2018-04-28T04:30:43.821Z,11.4
2018-04-28T04:47:23.373Z,11.7
2018-04-28T05:04:03.046Z,12.0
2018-04-28T05:20:43.450Z,12.3
2018-04-28T05:37:24.292Z,12.6
2018-04-28T05:50:45.532Z,13.3
2018-04-28T06:00:46.226Z,13.9
2018-04-28T06:17:29.800Z,14.2
2018-04-28T06:34:10.606Z,14.6
2018-04-28T06:50:53.658Z,14.9
2018-04-28T07:04:15.119Z,15.5
2018-04-28T07:17:37.964Z,16.2
2018-04-28T07:34:21.470Z,16.2
2018-04-28T07:51:05.497Z,16.8
2018-04-28T08:07:49.620Z,16.8
2018-04-28T08:24:34.066Z,16.5
2018-04-28T08:41:17.574Z,16.2
2018-04-28T08:58:01.618Z,16.5
2018-04-28T09:11:24.920Z,17.1
2018-04-28T09:18:07.067Z,17.8
2018-04-28T09:34:52.358Z,18.4
2018-04-28T09:51:37.434Z,18.1
2018-04-28T10:05:01.422Z,17.4
2018-04-28T10:21:46.183Z,17.8
2018-04-28T10:38:31.307Z,18.1
2018-04-28T10:55:16.412Z,17.4
2018-04-28T11:08:40.614Z,18.1
2018-04-28T11:25:26.290Z,18.4
2018-04-28T11:42:11.644Z,18.1
2018-04-28T11:58:57.300Z,18.4
2018-04-28T12:15:42.673Z,17.8
2018-04-28T12:32:27.930Z,17.4
2018-04-28T12:39:09.704Z,18.4
2018-04-28T12:55:55.282Z,18.4
2018-04-28T13:12:41.093Z,18.7
2018-04-28T13:19:23.286Z,18.1
2018-04-28T13:32:47.449Z,17.4
2018-04-28T13:49:32.414Z,18.1
2018-04-28T14:06:17.733Z,18.1
2018-04-28T14:23:03.367Z,18.4
2018-04-28T14:36:28.164Z,19.0
2018-04-28T14:53:14.484Z,19.0
2018-04-28T15:10:00.702Z,19.0
2018-04-28T15:26:48.264Z,18.7
2018-04-28T15:43:32.889Z,19.0
2018-04-28T16:00:18.969Z,18.7
2018-04-28T16:17:04.579Z,18.4
2018-04-28T16:33:49.926Z,17.8
2018-04-28T16:50:34.740Z,17.4
2018-04-28T17:07:19.396Z,17.1
2018-04-28T17:24:03.940Z,17.1
2018-04-28T17:40:48.160Z,16.8
2018-04-28T17:57:32.267Z,16.5
2018-04-28T18:14:16.028Z,16.2
2018-04-28T18:30:59.642Z,16.2
2018-04-28T18:47:43.213Z,15.8
2018-04-28T19:04:26.599Z,15.8
2018-04-28T19:21:09.923Z,15.8
2018-04-28T19:37:53.184Z,15.5
2018-04-28T19:54:36.334Z,15.5
2018-04-28T20:11:19.454Z,15.2
2018-04-28T20:28:02.541Z,15.2
2018-04-28T20:44:45.523Z,14.9
2018-04-28T21:01:28.051Z,14.9
2018-04-28T21:18:11.301Z,14.9
2018-04-28T21:34:53.466Z,14.9
2018-04-28T21:51:35.710Z,14.9
2018-04-28T22:08:18.457Z,14.9
2018-04-28T22:25:00.832Z,14.6
2018-04-28T22:41:43.599Z,14.2
2018-04-28T22:58:25.631Z,13.9
2018-04-28T23:15:07.483Z,13.9
2018-04-28T23:31:49.293Z,13.6
2018-04-28T23:48:30.870Z,13.6
